Time;durP1;ratioP1;P1;durP2;ratioP2;P2;SDS_P1;SDS_P2;PMS_P1;PMS_P2;Temp;Humidity;BMP_temperature;BMP_pressure;BME280_temperature;BME280_humidity;BME280_pressure;Samples;Min_cycle;Max_cycle;Signal;HPM_P1;HPM_P2
2022/11/10 00:02:12;;;;;;;2.38;1.23;;;;;;;19.44;54.16;101525.41;5063777;28;20484;-59
2022/11/10 00:04:37;;;;;;;1.52;1.08;;;;;;;19.42;54.31;101519.34;5063477;28;20028;-59
2022/11/10 00:07:02;;;;;;;2.67;1.20;;;;;;;19.41;53.74;101523.03;5081534;28;20036;-60
2022/11/10 00:09:28;;;;;;;3.15;1.25;;;;;;;19.41;53.79;101518.50;5083896;28;20043;-59
2022/11/10 00:11:53;;;;;;;3.63;0.90;;;;;;;19.41;54.00;101520.31;5083843;28;20029;-60
2022/11/10 00:17:05;;;;;;;1.50;0.82;;;;;;;19.41;54.06;101517.63;5083367;28;20032;-59
2022/11/10 00:19:32;;;;;;;3.53;1.70;;;;;;;19.39;54.13;101519.66;5083471;28;20059;-59
2022/11/10 00:21:58;;;;;;;3.13;1.35;;;;;;;19.38;53.86;101523.38;5083461;28;20040;-59
2022/11/10 00:24:23;;;;;;;2.60;1.10;;;;;;;19.37;54.26;101522.53;5081684;28;20031;-59
2022/11/10 00:26:49;;;;;;;2.25;1.27;;;;;;;19.36;53.76;101530.75;5083455;28;20024;-59
2022/11/10 00:29:15;;;;;;;2.70;1.15;;;;;;;19.35;53.83;101535.28;5083370;28;20036;-59
2022/11/10 00:31:40;;;;;;;2.28;1.05;;;;;;;19.24;54.01;101511.25;5083280;28;20024;-59
2022/11/10 00:34:12;;;;;;;1.55;0.90;;;;;;;19.32;53.80;101527.50;5083286;28;20657;-58
2022/11/10 00:36:38;;;;;;;2.15;1.13;;;;;;;19.34;54.21;101540.84;5083351;28;20024;-57
2022/11/10 00:39:03;;;;;;;2.33;1.25;;;;;;;19.33;53.73;101544.56;5083578;28;20055;-58
2022/11/10 00:41:28;;;;;;;2.67;1.30;;;;;;;19.32;53.89;101546.38;5063153;28;20055;-58
2022/11/10 00:43:54;;;;;;;3.22;1.08;;;;;;;19.23;54.15;101537.38;5063367;28;20057;-58
2022/11/10 00:46:19;;;;;;;1.33;0.75;;;;;;;19.31;53.73;101562.72;5063035;28;20398;-57
2022/11/10 00:48:44;;;;;;;2.58;1.10;;;;;;;19.29;54.11;101559.34;5063416;28;20033;-58
2022/11/10 00:51:27;;;;;;;2.38;1.15;;;;;;;19.31;54.16;101562.72;5062394;28;20040;-58
2022/11/10 00:53:52;;;;;;;2.72;1.00;;;;;;;19.30;54.20;101567.28;5063246;28;20052;-58
2022/11/10 00:56:18;;;;;;;2.03;1.02;;;;;;;19.29;53.80;101568.28;5082070;28;20060;-58
2022/11/10 00:58:44;;;;;;;2.72;1.30;;;;;;;19.28;54.05;101569.25;5083311;28;20032;-58
2022/11/10 01:01:09;;;;;;;2.45;1.10;;;;;;;19.18;53.90;101552.34;5083305;28;20021;-58
2022/11/10 01:03:35;;;;;;;3.42;1.30;;;;;;;19.18;53.74;101563.13;5083051;28;20032;-58
2022/11/10 01:06:05;;;;;;;1.58;1.10;;;;;;;19.19;53.69;101559.41;5082542;28;20086;-58
2022/11/10 01:08:30;;;;;;;3.55;1.27;;;;;;;19.25;54.05;101580.38;5083234;28;20044;-59
2022/11/10 01:11:03;;;;;;;2.15;1.10;;;;;;;19.26;53.95;101587.47;5082931;28;20035;-58
2022/11/10 01:13:28;;;;;;;2.72;1.50;;;;;;;19.17;53.76;101580.31;5083076;28;20027;-58
2022/11/10 01:15:54;;;;;;;1.33;0.93;;;;;;;19.25;54.11;101593.88;5083062;28;20029;-58
2022/11/10 01:18:19;;;;;;;2.30;1.10;;;;;;;19.25;53.71;101603.81;5082838;28;20175;-58
2022/11/10 01:20:50;;;;;;;1.00;0.90;;;;;;;19.23;54.04;101594.00;5082375;28;20051;-59
2022/11/10 01:23:15;;;;;;;2.22;1.10;;;;;;;19.22;53.79;101591.47;5073020;28;20025;-58
2022/11/10 01:25:40;;;;;;;2.20;1.10;;;;;;;19.23;53.90;101599.38;5063088;28;20055;-58
2022/11/10 01:28:05;;;;;;;2.17;1.05;;;;;;;19.22;54.11;101600.41;5062751;28;20025;-57
2022/11/10 01:30:31;;;;;;;2.22;1.10;;;;;;;19.22;54.04;101604.94;5063019;28;20040;-58
2022/11/10 01:32:56;;;;;;;2.00;1.10;;;;;;;19.21;53.92;101611.34;5062764;28;20033;-58
2022/11/10 01:35:21;;;;;;;2.05;1.08;;;;;;;19.19;53.94;101608.78;5062641;28;20021;-58
2022/11/10 01:37:46;;;;;;;2.67;1.10;;;;;;;19.20;53.93;101609.66;5062677;28;20064;-58
2022/11/10 01:40:12;;;;;;;1.58;0.90;;;;;;;19.19;54.18;101605.25;5074290;28;20024;-58
2022/11/10 01:42:47;;;;;;;2.78;1.00;;;;;;;19.18;54.05;101604.41;5086640;28;20031;-58
2022/11/10 01:45:45;;;;;;;1.55;0.88;;;;;;;19.18;53.86;101599.00;5086560;28;20032;-58
2022/11/10 01:48:25;;;;;;;4.18;1.40;;;;;;;19.18;54.11;101600.88;4984891;28;20082;-59
2022/11/10 01:50:51;;;;;;;3.70;1.27;;;;;;;19.17;53.89;101596.47;4968450;28;20035;-58
2022/11/10 01:53:22;;;;;;;1.73;1.10;;;;;;;19.10;54.06;101584.59;4984731;28;20047;-58
2022/11/10 01:55:48;;;;;;;2.08;1.20;;;;;;;19.16;53.71;101597.50;4985094;28;20446;-57
2022/11/10 01:58:15;;;;;;;2.10;1.30;;;;;;;19.15;54.03;101596.59;4968554;28;20027;-58
2022/11/10 02:00:42;;;;;;;1.75;0.90;;;;;;;19.15;53.88;101598.47;4984979;28;20086;-57
2022/11/10 02:03:31;;;;;;;2.17;1.13;;;;;;;19.14;53.95;101610.25;4984566;28;20034;-58
2022/11/10 02:05:57;;;;;;;3.15;1.10;;;;;;;19.12;53.97;101618.50;4984265;28;20050;-58
2022/11/10 02:08:22;;;;;;;1.52;1.00;;;;;;;19.13;53.71;101625.59;4984617;28;20031;-58
2022/11/10 02:10:48;;;;;;;2.38;1.27;;;;;;;19.13;53.71;101630.13;4984505;28;20062;-59
2022/11/10 02:13:13;;;;;;;2.40;1.25;;;;;;;19.11;53.77;101635.66;4986329;28;20031;-58
2022/11/10 02:15:38;;;;;;;2.58;1.00;;;;;;;19.11;53.90;101637.50;5003826;28;20045;-59
2022/11/10 02:18:04;;;;;;;3.00;1.00;;;;;;;19.11;53.92;101637.50;5003850;28;20169;-59
2022/11/10 02:20:29;;;;;;;2.28;1.10;;;;;;;19.10;53.77;101647.44;5003054;28;20058;-59
2022/11/10 02:22:54;;;;;;;4.15;1.27;;;;;;;19.04;53.79;101639.13;4985436;28;20035;-59
2022/11/10 02:25:21;;;;;;;2.03;1.30;;;;;;;19.09;54.09;101639.53;5027650;28;20060;-59
2022/11/10 02:27:46;;;;;;;2.22;1.20;;;;;;;19.09;53.92;101631.44;5065657;28;20040;-59
2022/11/10 02:30:12;;;;;;;2.20;1.40;;;;;;;19.09;53.86;101626.88;5065914;28;20020;-57
2022/11/10 02:32:37;;;;;;;1.67;1.00;;;;;;;19.07;53.64;101639.66;5065427;28;20029;-59
2022/11/10 02:35:03;;;;;;;1.70;1.17;;;;;;;18.98;53.92;101636.03;5065188;28;20025;-60
2022/11/10 02:37:28;;;;;;;2.60;1.10;;;;;;;18.96;53.85;101621.03;5065565;28;20033;-59
2022/11/10 02:39:54;;;;;;;1.55;0.95;;;;;;;19.05;53.98;101621.97;5073647;28;20586;-60
2022/11/10 02:42:19;;;;;;;2.88;1.25;;;;;;;19.06;53.86;101624.50;5085590;28;20084;-59
2022/11/10 02:44:44;;;;;;;1.52;1.10;;;;;;;19.06;53.60;101637.97;5085670;28;20025;-59
2022/11/10 02:47:09;;;;;;;1.75;0.82;;;;;;;19.02;53.68;101641.13;5084741;28;20084;-59
2022/11/10 02:49:35;;;;;;;2.55;1.27;;;;;;;19.05;53.89;101646.22;5084917;28;20039;-58
2022/11/10 02:52:00;;;;;;;1.65;0.95;;;;;;;19.04;53.67;101652.59;5064795;28;20120;-58
2022/11/10 02:54:25;;;;;;;2.25;1.15;;;;;;;19.03;53.84;101657.16;5065406;28;20038;-59
2022/11/10 02:56:50;;;;;;;1.98;1.20;;;;;;;19.03;53.78;101661.66;5068072;28;20084;-58
2022/11/10 02:59:16;;;;;;;3.03;1.48;;;;;;;19.02;53.76;101666.22;5085463;28;20025;-59
2022/11/10 03:01:41;;;;;;;1.85;1.00;;;;;;;18.99;53.75;101661.16;5084952;28;20417;-58
2022/11/10 03:04:06;;;;;;;2.90;1.10;;;;;;;18.99;53.62;101663.84;5085043;28;20111;-58
2022/11/10 03:06:32;;;;;;;4.15;1.10;;;;;;;19.02;53.73;101670.75;5084409;28;20093;-58
2022/11/10 03:08:57;;;;;;;2.10;1.35;;;;;;;19.01;53.65;101672.63;5085173;28;20032;-59
2022/11/10 03:11:23;;;;;;;1.85;1.60;;;;;;;18.92;53.85;101658.19;5085135;28;20024;-58
2022/11/10 03:13:48;;;;;;;1.75;1.17;;;;;;;19.00;53.98;101681.72;5084719;28;20024;-58
2022/11/10 03:16:14;;;;;;;3.55;1.23;;;;;;;18.96;53.72;101681.16;5084798;28;20024;-61
2022/11/10 03:18:39;;;;;;;2.45;1.42;;;;;;;18.98;53.89;101686.38;5084705;28;20489;-58
2022/11/10 03:21:04;;;;;;;1.73;1.10;;;;;;;18.97;53.97;101696.31;5084475;28;20040;-57
2022/11/10 03:23:29;;;;;;;2.13;1.25;;;;;;;18.98;53.68;101689.06;5070743;28;20025;-57
2022/11/10 03:25:55;;;;;;;2.53;1.20;;;;;;;18.96;53.55;101696.47;5082553;28;20028;-58
2022/11/10 03:28:20;;;;;;;2.25;1.35;;;;;;;18.95;53.68;101695.63;5084526;28;20017;-57
2022/11/10 03:30:45;;;;;;;3.22;1.40;;;;;;;18.95;53.77;101694.78;5084701;28;20028;-57
2022/11/10 03:33:11;;;;;;;3.35;1.30;;;;;;;18.93;53.70;101694.91;5084048;28;20101;-58
2022/11/10 03:35:36;;;;;;;2.55;1.30;;;;;;;18.69;53.83;101663.16;5066166;28;20040;-58
2022/11/10 03:38:01;;;;;;;1.85;1.15;;;;;;;18.94;53.77;101709.22;5084455;28;20173;-58
2022/11/10 03:40:27;;;;;;;3.33;1.55;;;;;;;18.90;53.93;101711.41;5072272;28;20036;-58
2022/11/10 03:42:52;;;;;;;2.50;1.40;;;;;;;18.93;53.69;101715.63;5063974;28;20033;-58
2022/11/10 03:45:17;;;;;;;3.25;1.52;;;;;;;18.90;53.91;101714.09;5064220;28;20028;-57
2022/11/10 03:47:47;;;;;;;3.83;1.30;;;;;;;18.86;54.01;101706.44;5063815;28;20029;-60
2022/11/10 03:50:14;;;;;;;2.47;1.30;;;;;;;18.84;53.69;101709.28;5063613;28;20032;-58
2022/11/10 03:52:39;;;;;;;2.67;1.52;;;;;;;18.91;53.99;101721.19;5067732;28;20096;-58
2022/11/10 03:55:05;;;;;;;2.10;1.05;;;;;;;18.91;53.90;101720.34;5064159;28;20131;-58
2022/11/10 03:57:31;;;;;;;2.75;1.30;;;;;;;18.89;53.62;101727.69;5064178;28;20021;-59
2022/11/10 03:59:56;;;;;;;2.25;1.52;;;;;;;18.90;53.93;101740.16;5064169;28;20048;-59
2022/11/10 04:02:21;;;;;;;2.58;1.25;;;;;;;18.90;53.83;101738.34;5062984;28;20055;-59
2022/11/10 04:10:14;;;;;;;3.40;1.20;;;;;;;18.86;53.77;101752.25;5084036;28;20036;-59
2022/11/10 04:15:42;;;;;;;4.13;1.30;;;;;;;18.87;53.91;101773.66;5063662;28;20039;-58
2022/11/10 04:18:23;;;;;;;3.40;1.10;;;;;;;18.86;53.68;101769.28;5048534;28;20037;-59
2022/11/10 04:20:49;;;;;;;2.90;1.63;;;;;;;18.87;53.53;101791.69;5062994;28;20053;-59
2022/11/10 04:23:27;;;;;;;2.08;1.27;;;;;;;18.67;53.57;101764.75;5063524;28;20036;-59
2022/11/10 04:28:39;;;;;;;2.28;1.52;;;;;;;18.82;53.87;101799.34;5063516;28;20047;-59
2022/11/10 04:31:05;;;;;;;2.50;1.42;;;;;;;18.84;53.70;101811.69;5063581;28;20036;-58
2022/11/10 04:33:31;;;;;;;3.45;1.90;;;;;;;18.83;53.73;101812.69;5063515;28;20025;-59
2022/11/10 04:35:56;;;;;;;2.90;1.38;;;;;;;18.83;53.52;101819.91;5065040;28;20044;-58
2022/11/10 04:38:21;;;;;;;1.60;1.23;;;;;;;18.81;53.95;101822.72;5083235;28;20119;-58
2022/11/10 04:40:46;;;;;;;3.90;1.50;;;;;;;18.82;53.83;101826.28;5083550;28;20025;-58
2022/11/10 04:43:12;;;;;;;2.67;1.50;;;;;;;18.78;53.67;101819.50;5083222;28;20020;-59
2022/11/10 04:45:37;;;;;;;4.38;1.35;;;;;;;18.79;53.55;101813.13;5083402;28;20036;-58
2022/11/10 04:48:02;;;;;;;2.75;1.45;;;;;;;18.81;53.47;101822.72;5083290;28;20047;-59
2022/11/10 04:50:28;;;;;;;2.35;1.58;;;;;;;18.81;53.98;101829.97;5082862;28;20039;-58
2022/11/10 04:52:53;;;;;;;1.92;1.35;;;;;;;18.80;53.58;101823.75;5083364;28;20028;-58
2022/11/10 04:55:18;;;;;;;2.20;1.30;;;;;;;18.80;53.85;101822.91;5065118;28;20028;-59
2022/11/10 04:57:43;;;;;;;2.67;1.33;;;;;;;18.79;53.53;101822.03;5083308;28;20032;-59
2022/11/10 05:00:09;;;;;;;1.45;1.20;;;;;;;18.80;53.99;101825.59;5083447;28;20025;-58
2022/11/10 05:02:35;;;;;;;2.25;1.23;;;;;;;18.78;53.69;101820.34;5082807;28;20032;-58
2022/11/10 05:05:01;;;;;;;2.63;1.70;;;;;;;18.78;53.76;101820.34;5082900;28;20499;-59
2022/11/10 05:07:26;;;;;;;2.35;1.23;;;;;;;18.78;54.00;101825.75;5082560;28;20132;-59
2022/11/10 05:09:51;;;;;;;3.80;1.65;;;;;;;18.77;53.61;101823.19;5083293;28;20040;-59
2022/11/10 05:12:16;;;;;;;2.30;1.20;;;;;;;18.78;53.54;101823.06;5082984;28;20108;-59
2022/11/10 05:14:41;;;;;;;1.98;1.13;;;;;;;18.78;53.60;101827.59;5085779;28;20028;-59
2022/11/10 05:17:07;;;;;;;3.50;1.83;;;;;;;18.77;53.54;101842.03;5086712;28;20059;-59
2022/11/10 05:19:32;;;;;;;3.30;1.50;;;;;;;18.76;53.95;101834.97;5086886;28;20060;-58
2022/11/10 05:21:57;;;;;;;3.40;1.30;;;;;;;18.76;53.84;101835.81;5081244;28;20032;-59
2022/11/10 05:24:22;;;;;;;2.20;1.40;;;;;;;18.75;54.00;101833.25;5067074;28;20648;-58
2022/11/10 05:26:48;;;;;;;2.47;1.50;;;;;;;18.76;53.84;101845.72;5066577;28;20044;-58
2022/11/10 05:29:13;;;;;;;2.67;1.50;;;;;;;18.70;53.53;101833.69;5076036;28;20078;-58
2022/11/10 05:31:38;;;;;;;2.15;1.20;;;;;;;18.77;53.89;101848.28;5085922;28;20126;-58
2022/11/10 05:34:03;;;;;;;4.28;1.65;;;;;;;18.77;53.82;101855.50;5085041;28;20042;-58
2022/11/10 05:36:29;;;;;;;2.50;1.70;;;;;;;18.77;54.04;101853.66;5075448;28;20455;-58
2022/11/10 05:38:54;;;;;;;2.67;1.50;;;;;;;18.71;53.61;101848.84;5077288;28;20021;-58
2022/11/10 05:41:19;;;;;;;4.25;1.50;;;;;;;18.78;53.62;101858.06;5073756;28;20037;-58
2022/11/10 05:43:44;;;;;;;2.92;1.50;;;;;;;18.75;54.06;101852.97;5076114;28;20024;-57
2022/11/10 05:46:10;;;;;;;2.17;1.33;;;;;;;18.78;53.73;101854.53;5076851;28;20017;-58
2022/11/10 05:48:35;;;;;;;2.30;1.38;;;;;;;18.78;53.91;101862.63;5074634;28;20036;-58
2022/11/10 05:51:00;;;;;;;3.45;1.95;;;;;;;18.76;53.85;101862.75;5076041;28;20106;-57
2022/11/10 05:53:25;;;;;;;3.38;1.55;;;;;;;18.77;53.64;101868.97;5072008;28;20029;-57
2022/11/10 05:55:51;;;;;;;1.90;1.30;;;;;;;18.78;53.81;101868.00;5066756;28;20024;-58
2022/11/10 05:58:16;;;;;;;1.92;1.15;;;;;;;18.77;53.91;101866.28;5066218;28;20111;-59
2022/11/10 06:00:42;;;;;;;3.38;2.00;;;;;;;18.77;53.84;101869.81;5075612;28;20032;-59
2022/11/10 06:03:15;;;;;;;2.90;1.38;;;;;;;18.79;53.69;101881.31;5074916;28;20667;-59
2022/11/10 06:05:41;;;;;;;2.25;1.40;;;;;;;18.79;54.09;101884.00;5076193;28;20050;-57
2022/11/10 06:08:06;;;;;;;3.35;1.60;;;;;;;18.79;53.76;101884.00;5075309;28;20107;-58
2022/11/10 06:10:32;;;;;;;2.42;1.30;;;;;;;18.79;53.75;101891.25;5076384;28;20720;-58
2022/11/10 06:12:58;;;;;;;2.38;1.10;;;;;;;18.80;53.75;101890.25;5074726;28;20064;-58
2022/11/10 06:15:24;;;;;;;2.55;1.35;;;;;;;18.79;53.80;101893.94;5077181;28;20025;-58
2022/11/10 06:17:49;;;;;;;4.00;1.80;;;;;;;18.80;53.89;101911.81;5074111;28;20064;-57
2022/11/10 06:20:18;;;;;;;3.97;1.50;;;;;;;18.79;54.01;101924.44;5075756;28;20485;-57
2022/11/10 06:22:45;;;;;;;3.42;1.60;;;;;;;18.80;54.28;101920.72;5073676;28;20112;-57
2022/11/10 06:25:10;;;;;;;3.65;1.60;;;;;;;18.78;53.82;101920.03;5057984;28;20031;-58
2022/11/10 06:27:36;;;;;;;4.28;1.50;;;;;;;18.81;53.97;101925.13;5076599;28;20428;-57
2022/11/10 06:30:03;;;;;;;3.03;1.48;;;;;;;18.81;54.20;101924.28;5070606;28;20059;-53
2022/11/10 06:32:28;;;;;;;4.07;2.05;;;;;;;18.81;54.36;101930.50;5069398;28;20031;-59
2022/11/10 06:34:53;;;;;;;4.00;1.60;;;;;;;18.82;54.53;101936.75;5074478;28;20029;-59
2022/11/10 06:37:18;;;;;;;5.18;1.45;;;;;;;18.81;54.28;101941.28;5075605;28;20088;-59
2022/11/10 06:39:45;;;;;;;2.83;1.20;;;;;;;18.80;54.55;101950.38;5076056;28;20028;-59
2022/11/10 06:42:10;;;;;;;3.47;1.55;;;;;;;18.80;54.57;101950.38;5075785;28;20031;-59
2022/11/10 06:44:35;;;;;;;3.60;1.50;;;;;;;18.79;54.51;101945.97;5074477;28;20092;-60
2022/11/10 06:47:01;;;;;;;2.70;1.60;;;;;;;18.79;54.59;101964.84;5072969;28;20027;-60
2022/11/10 06:49:26;;;;;;;4.88;1.60;;;;;;;18.79;54.60;101961.31;5073143;28;20098;-59
2022/11/10 06:51:51;;;;;;;5.95;1.83;;;;;;;18.78;54.53;101963.16;5075619;28;20428;-60
2022/11/10 06:54:16;;;;;;;2.58;1.45;;;;;;;18.80;54.39;101960.31;5074209;28;20078;-60
2022/11/10 06:56:42;;;;;;;2.78;1.60;;;;;;;18.79;54.41;101959.47;5074766;28;20025;-60
2022/11/10 06:59:07;;;;;;;4.55;1.98;;;;;;;18.80;54.81;101963.84;5075738;28;20043;-60
2022/11/10 07:01:32;;;;;;;2.65;1.73;;;;;;;18.79;54.52;101972.94;5073617;28;20037;-60
2022/11/10 07:03:57;;;;;;;2.92;1.40;;;;;;;18.79;54.58;101981.00;5074952;28;20060;-60
2022/11/10 07:06:22;;;;;;;4.05;1.48;;;;;;;18.82;54.83;101988.81;5074720;28;20025;-59
2022/11/10 07:08:48;;;;;;;2.60;1.60;;;;;;;18.81;54.36;101989.78;5066931;28;20024;-60
2022/11/10 07:11:14;;;;;;;4.75;1.70;;;;;;;18.83;54.84;102006.69;5067376;28;20025;-59
2022/11/10 07:13:42;;;;;;;4.97;1.58;;;;;;;18.85;54.57;102010.06;5084063;28;20037;-60
2022/11/10 07:16:08;;;;;;;2.55;2.05;;;;;;;18.84;54.69;102011.06;5072461;28;20048;-59
2022/11/10 07:18:36;;;;;;;6.78;1.58;;;;;;;18.77;54.84;102009.91;5072413;28;20050;-60
2022/11/10 07:21:05;;;;;;;3.60;1.85;;;;;;;18.86;54.66;102010.91;5065197;28;20041;-60
2022/11/10 07:23:32;;;;;;;3.33;1.40;;;;;;;18.86;54.43;102010.91;5084622;28;20044;-60
2022/11/10 07:25:58;;;;;;;3.15;1.58;;;;;;;18.69;54.72;101982.78;5084770;28;20132;-59
2022/11/10 07:28:24;;;;;;;3.95;1.95;;;;;;;18.85;54.89;102014.59;5084397;28;20031;-59
2022/11/10 07:30:49;;;;;;;3.47;2.53;;;;;;;18.78;54.55;102000.03;5084040;28;20032;-60
2022/11/10 07:33:14;;;;;;;3.20;1.40;;;;;;;18.85;54.26;102020.84;5084396;28;20052;-58
2022/11/10 07:35:40;;;;;;;3.75;1.80;;;;;;;18.84;54.76;102021.00;5084005;28;20020;-60
2022/11/10 07:38:07;;;;;;;2.47;1.50;;;;;;;18.85;54.67;102025.38;5079560;28;20037;-59
2022/11/10 07:40:33;;;;;;;1.92;1.30;;;;;;;18.85;54.37;102028.09;5073882;28;20524;-59
2022/11/10 07:42:59;;;;;;;3.20;1.60;;;;;;;18.86;54.69;102021.69;5075724;28;20044;-59
2022/11/10 07:45:25;;;;;;;7.78;2.42;;;;;;;18.86;54.47;102019.88;5073582;28;20016;-60
2022/11/10 07:47:50;;;;;;;2.83;1.25;;;;;;;18.87;53.89;102010.78;5074631;28;20031;-60
2022/11/10 07:50:16;;;;;;;3.78;1.77;;;;;;;18.88;54.45;102017.03;5060065;28;20043;-60
2022/11/10 07:52:42;;;;;;;3.50;1.90;;;;;;;18.88;54.16;102023.25;5076976;28;20495;-59
2022/11/10 07:55:07;;;;;;;3.95;1.90;;;;;;;18.90;54.63;102020.41;5073367;28;20543;-60
2022/11/10 07:57:32;;;;;;;4.30;1.65;;;;;;;18.92;54.31;102022.00;5073554;28;20106;-59
2022/11/10 07:59:58;;;;;;;4.25;1.70;;;;;;;18.95;54.38;102021.72;5073971;28;20080;-60
2022/11/10 08:02:23;;;;;;;3.75;1.85;;;;;;;18.97;54.40;102029.66;5071995;28;20027;-60
2022/11/10 08:04:48;;;;;;;3.20;1.35;;;;;;;19.07;54.59;102035.03;5074616;28;20028;-60
2022/11/10 08:07:13;;;;;;;3.95;1.50;;;;;;;19.08;54.03;102032.22;5081301;28;20028;-61
2022/11/10 08:09:39;;;;;;;3.65;2.15;;;;;;;19.14;54.17;102037.03;5069825;28;20032;-62
2022/11/10 08:12:04;;;;;;;3.25;1.85;;;;;;;19.17;54.21;102043.97;5083574;28;20031;-60
2022/11/10 08:14:30;;;;;;;4.20;1.65;;;;;;;19.16;53.95;102045.00;5081990;28;20684;-61
2022/11/10 08:16:56;;;;;;;4.95;1.98;;;;;;;19.19;54.23;102050.91;5082707;28;20029;-61
2022/11/10 08:19:21;;;;;;;4.25;2.10;;;;;;;19.18;54.36;102051.91;5067498;28;20065;-60
2022/11/10 08:21:46;;;;;;;3.75;2.05;;;;;;;19.17;53.86;102047.53;5062962;28;20084;-61
2022/11/10 08:24:11;;;;;;;4.07;1.80;;;;;;;19.23;54.32;102056.88;5063326;28;20033;-60
2022/11/10 08:26:36;;;;;;;4.60;1.92;;;;;;;19.17;54.22;102047.53;5063451;28;20033;-60
2022/11/10 08:29:02;;;;;;;4.90;1.90;;;;;;;19.30;53.91;102059.88;5063375;28;20029;-60
2022/11/10 08:31:27;;;;;;;3.97;1.88;;;;;;;19.28;53.89;102054.59;5045851;28;20440;-59
2022/11/10 08:33:53;;;;;;;2.13;1.40;;;;;;;19.36;53.97;102060.13;5063566;28;20040;-60
2022/11/10 08:36:18;;;;;;;4.60;1.75;;;;;;;19.40;53.53;102063.41;5063165;28;20070;-61
2022/11/10 08:38:43;;;;;;;4.85;1.77;;;;;;;19.44;53.40;102072.91;5063628;28;20079;-60
2022/11/10 08:41:08;;;;;;;5.80;2.25;;;;;;;19.45;53.48;102075.47;5080716;28;20032;-60
2022/11/10 08:43:34;;;;;;;4.15;1.60;;;;;;;19.53;53.12;102080.13;5077414;28;20088;-60
2022/11/10 08:46:00;;;;;;;3.17;1.35;;;;;;;19.58;52.86;102096.75;5063113;28;20063;-60
2022/11/10 08:48:26;;;;;;;3.75;1.60;;;;;;;19.65;53.29;102086.25;5063098;28;20044;-60
2022/11/10 08:50:51;;;;;;;4.05;1.77;;;;;;;19.59;52.96;102078.72;5062856;28;20033;-61
2022/11/10 08:53:19;;;;;;;2.50;1.40;;;;;;;19.63;52.73;102075.63;5063707;28;20024;-61
2022/11/10 08:55:45;;;;;;;3.33;2.03;;;;;;;19.06;52.71;101977.56;5063511;28;20059;-61
2022/11/10 08:58:12;;;;;;;3.55;1.60;;;;;;;19.46;52.54;102058.28;5063255;28;20561;-60
2022/11/10 09:00:37;;;;;;;3.78;2.13;;;;;;;19.65;52.52;102076.31;5063518;28;20020;-59
2022/11/10 09:03:06;;;;;;;3.60;1.55;;;;;;;19.71;52.54;102096.47;5063172;28;20029;-60
2022/11/10 09:05:32;;;;;;;4.20;1.95;;;;;;;19.68;52.76;102094.06;5066082;28;20036;-60
2022/11/10 09:07:58;;;;;;;5.53;1.27;;;;;;;19.67;52.76;102100.47;5083346;28;20059;-60
2022/11/10 09:10:23;;;;;;;3.33;1.60;;;;;;;19.53;52.53;102082.81;5083407;28;20016;-60
2022/11/10 09:12:48;;;;;;;5.55;2.00;;;;;;;19.65;52.84;102113.22;5083186;28;20472;-60
2022/11/10 09:15:14;;;;;;;3.20;1.98;;;;;;;19.64;52.57;102104.28;5082520;28;20111;-60
2022/11/10 09:17:40;;;;;;;2.80;1.50;;;;;;;19.63;52.65;102107.16;5082912;28;20046;-60
2022/11/10 09:20:07;;;;;;;3.97;1.60;;;;;;;19.63;52.60;102113.38;5082630;28;20102;-60
2022/11/10 09:22:35;;;;;;;2.85;1.60;;;;;;;19.63;52.65;102116.09;5083477;28;20043;-60
2022/11/10 09:25:01;;;;;;;5.20;1.75;;;;;;;19.64;52.41;102128.56;5083051;28;20521;-60
2022/11/10 09:27:26;;;;;;;3.55;1.80;;;;;;;19.64;52.60;102122.31;5083077;28;20040;-60
2022/11/10 09:29:51;;;;;;;3.67;1.60;;;;;;;19.65;52.82;102126.72;5081908;28;20021;-59
2022/11/10 09:32:16;;;;;;;4.30;1.65;;;;;;;19.64;52.39;102122.31;5083146;28;20052;-60
2022/11/10 09:34:42;;;;;;;4.70;1.55;;;;;;;19.65;52.67;102119.47;5082764;28;20029;-60
2022/11/10 09:37:07;;;;;;;3.22;1.67;;;;;;;19.65;52.70;102126.72;5082893;28;20020;-60
2022/11/10 09:39:33;;;;;;;2.60;1.25;;;;;;;19.58;52.79;102109.38;5083124;28;20051;-60
2022/11/10 09:41:58;;;;;;;3.17;1.70;;;;;;;19.65;52.56;102121.31;5083000;28;20031;-60
2022/11/10 09:44:32;;;;;;;3.95;1.90;;;;;;;19.61;52.42;102126.16;5050423;28;20036;-60
2022/11/10 09:47:02;;;;;;;3.22;1.50;;;;;;;19.68;52.70;102132.69;5082446;28;20118;-60
2022/11/10 09:49:44;;;;;;;3.58;1.55;;;;;;;19.68;52.30;102138.09;5064998;28;20028;-60
2022/11/10 09:52:11;;;;;;;3.83;1.58;;;;;;;19.68;52.67;102142.63;5082848;28;20052;-60
2022/11/10 09:54:44;;;;;;;2.50;1.42;;;;;;;19.65;52.58;102142.91;5082822;28;20040;-60
2022/11/10 09:57:12;;;;;;;3.95;1.73;;;;;;;19.64;52.47;102147.47;5083012;28;20024;-61
2022/11/10 09:59:37;;;;;;;3.22;1.30;;;;;;;19.54;52.70;102143.91;5083078;28;20032;-59
2022/11/10 10:02:29;;;;;;;3.80;1.42;;;;;;;19.61;52.80;102169.31;5085367;28;20024;-59
2022/11/10 10:05:10;;;;;;;3.63;2.13;;;;;;;19.61;52.55;102173.88;5085891;28;20032;-59
2022/11/10 10:07:56;;;;;;;2.63;1.55;;;;;;;19.61;52.65;102169.31;5048429;28;20024;-59
2022/11/10 10:10:37;;;;;;;3.47;1.60;;;;;;;19.60;52.61;102170.28;5048535;28;20025;-59
2022/11/10 10:13:08;;;;;;;2.63;1.80;;;;;;;19.61;52.75;102173.88;5049319;28;20036;-61
2022/11/10 10:15:36;;;;;;;4.10;1.58;;;;;;;19.60;52.77;102175.69;5086096;28;20028;-60
2022/11/10 10:18:37;;;;;;;3.07;1.60;;;;;;;19.61;53.02;102179.25;5086015;28;20035;-60
2022/11/10 10:21:27;;;;;;;4.57;1.80;;;;;;;19.63;52.53;102180.00;5003257;28;20729;-60
2022/11/10 10:23:54;;;;;;;3.72;1.52;;;;;;;19.62;52.51;102179.09;4986226;28;20034;-59
2022/11/10 10:26:24;;;;;;;3.95;2.63;;;;;;;19.65;52.73;102192.31;4984505;28;20138;-60
2022/11/10 10:28:49;;;;;;;3.92;1.27;;;;;;;19.65;52.76;102186.94;4984252;28;20030;-60
2022/11/10 10:31:18;;;;;;;3.38;1.75;;;;;;;19.66;52.62;102191.31;4984385;28;20047;-60
2022/11/10 10:33:44;;;;;;;;;;;;;;;19.69;52.87;102201.00;4984651;28;20043;-60
2022/11/10 10:36:15;;;;;;;3.80;1.50;;;;;;;19.68;52.49;102205.53;4983890;28;19957;-60
2022/11/10 10:38:42;;;;;;;5.53;1.75;;;;;;;19.62;52.76;102205.25;4984183;28;20050;-60
2022/11/10 10:41:23;;;;;;;4.85;1.65;;;;;;;19.61;52.71;102199.00;4967361;28;20122;-60
2022/11/10 10:43:50;;;;;;;4.03;1.55;;;;;;;19.65;53.10;102208.50;4964856;28;20098;-60
2022/11/10 10:46:17;;;;;;;4.22;1.60;;;;;;;19.59;53.00;102200.97;4948338;29;20046;-59
2022/11/10 10:48:42;;;;;;;2.35;1.27;;;;;;;19.68;52.89;102210.94;4964699;29;20035;-59
2022/11/10 10:51:08;;;;;;;3.53;1.60;;;;;;;19.65;52.95;102203.13;4964012;29;20559;-59
2022/11/10 10:53:44;;;;;;;6.25;2.05;;;;;;;19.70;52.82;102208.94;4948706;29;20083;-59
2022/11/10 10:56:20;;;;;;;3.33;1.50;;;;;;;19.71;52.99;102207.13;4964813;29;20039;-59
2022/11/10 10:58:48;;;;;;;4.20;1.70;;;;;;;19.71;52.95;102210.66;5044617;28;20176;-59
2022/11/10 11:01:13;;;;;;;3.78;1.50;;;;;;;19.73;53.26;102218.59;5065305;28;20025;-60
2022/11/10 11:03:42;;;;;;;4.15;1.98;;;;;;;19.74;53.17;102220.28;5065152;28;20036;-60
2022/11/10 11:06:13;;;;;;;3.22;1.75;;;;;;;19.75;53.30;102210.34;5072822;28;20027;-59
2022/11/10 11:08:38;;;;;;;4.78;1.77;;;;;;;19.77;53.33;102214.63;5085001;28;20049;-60
2022/11/10 11:11:10;;;;;;;3.40;1.80;;;;;;;19.79;52.95;102212.63;5085171;28;20091;-60
2022/11/10 11:13:35;;;;;;;3.75;1.63;;;;;;;19.81;52.81;102210.66;5080286;28;20051;-59
2022/11/10 11:16:04;;;;;;;3.25;1.30;;;;;;;19.84;52.82;102215.78;5084596;28;20036;-59
2022/11/10 11:18:31;;;;;;;2.38;1.30;;;;;;;19.84;52.88;102213.06;5084943;28;20036;-60
2022/11/10 11:21:01;;;;;;;3.28;1.48;;;;;;;19.84;53.04;102223.03;5084304;28;20037;-60
2022/11/10 11:24:03;;;;;;;3.15;1.38;;;;;;;19.83;53.14;102232.94;5067147;28;20036;-60
2022/11/10 11:26:38;;;;;;;3.05;1.60;;;;;;;19.74;52.89;102225.69;5084976;28;20020;-59
2022/11/10 11:29:12;;;;;;;3.65;1.40;;;;;;;19.84;53.32;102231.97;5084900;28;20047;-59
2022/11/10 11:32:10;;;;;;;3.60;1.40;;;;;;;19.86;53.10;102237.22;5084692;28;20071;-60
2022/11/10 11:34:43;;;;;;;3.05;1.63;;;;;;;19.86;52.94;102238.06;5067031;28;20028;-59
2022/11/10 11:37:19;;;;;;;4.97;1.48;;;;;;;19.78;53.10;102228.97;5066397;28;20060;-60
2022/11/10 11:40:24;;;;;;;3.70;1.38;;;;;;;19.89;53.13;102253.13;5060931;28;20017;-60